sensor_id;sensor_type;location;lat;lon;timestamp;P1;durP1;ratioP1;P2;durP2;ratioP2
26750;SDS011;14345;48.272;25.926;2023-08-07T00:00:49;3.97;;;3.40;;
26750;SDS011;14345;48.272;25.926;2023-08-07T00:03:16;3.53;;;3.22;;
26750;SDS011;14345;48.272;25.926;2023-08-07T00:05:47;3.38;;;2.90;;
26750;SDS011;14345;48.272;25.926;2023-08-07T00:08:13;3.97;;;3.67;;
26750;SDS011;14345;48.272;25.926;2023-08-07T00:10:39;3.90;;;3.30;;
26750;SDS011;14345;48.272;25.926;2023-08-07T00:13:05;3.53;;;3.22;;
26750;SDS011;14345;48.272;25.926;2023-08-07T00:15:31;5.57;;;3.38;;
26750;SDS011;14345;48.272;25.926;2023-08-07T00:18:01;3.70;;;3.40;;
26750;SDS011;14345;48.272;25.926;2023-08-07T00:20:27;4.55;;;3.40;;
26750;SDS011;14345;48.272;25.926;2023-08-07T00:22:53;4.22;;;3.83;;
26750;SDS011;14345;48.272;25.926;2023-08-07T00:25:19;3.80;;;3.50;;
26750;SDS011;14345;48.272;25.926;2023-08-07T00:27:45;3.92;;;3.63;;
26750;SDS011;14345;48.272;25.926;2023-08-07T00:30:11;4.68;;;4.28;;
26750;SDS011;14345;48.272;25.926;2023-08-07T00:32:37;6.53;;;5.07;;
26750;SDS011;14345;48.272;25.926;2023-08-07T00:35:03;5.00;;;3.90;;
26750;SDS011;14345;48.272;25.926;2023-08-07T00:37:30;4.82;;;4.43;;
26750;SDS011;14345;48.272;25.926;2023-08-07T00:39:56;5.25;;;4.75;;
26750;SDS011;14345;48.272;25.926;2023-08-07T00:42:22;6.95;;;6.25;;
26750;SDS011;14345;48.272;25.926;2023-08-07T00:44:48;5.15;;;4.75;;
26750;SDS011;14345;48.272;25.926;2023-08-07T00:47:14;4.70;;;4.30;;
26750;SDS011;14345;48.272;25.926;2023-08-07T00:49:40;5.05;;;4.40;;
26750;SDS011;14345;48.272;25.926;2023-08-07T00:52:06;4.18;;;3.85;;
26750;SDS011;14345;48.272;25.926;2023-08-07T00:54:32;5.30;;;4.47;;
26750;SDS011;14345;48.272;25.926;2023-08-07T00:56:59;5.90;;;4.35;;
26750;SDS011;14345;48.272;25.926;2023-08-07T00:59:31;5.03;;;4.63;;
26750;SDS011;14345;48.272;25.926;2023-08-07T01:01:58;4.20;;;3.83;;
26750;SDS011;14345;48.272;25.926;2023-08-07T01:04:25;4.25;;;3.85;;
26750;SDS011;14345;48.272;25.926;2023-08-07T01:06:51;4.20;;;3.80;;
26750;SDS011;14345;48.272;25.926;2023-08-07T01:09:17;4.00;;;3.70;;
26750;SDS011;14345;48.272;25.926;2023-08-07T01:14:16;4.32;;;3.90;;
26750;SDS011;14345;48.272;25.926;2023-08-07T01:19:17;5.03;;;4.57;;
26750;SDS011;14345;48.272;25.926;2023-08-07T01:21:47;4.60;;;4.20;;
26750;SDS011;14345;48.272;25.926;2023-08-07T01:24:14;4.55;;;4.15;;
26750;SDS011;14345;48.272;25.926;2023-08-07T01:26:40;4.30;;;3.90;;
26750;SDS011;14345;48.272;25.926;2023-08-07T01:31:37;4.30;;;3.90;;
26750;SDS011;14345;48.272;25.926;2023-08-07T01:34:05;4.45;;;4.05;;
26750;SDS011;14345;48.272;25.926;2023-08-07T01:36:33;4.55;;;4.15;;
26750;SDS011;14345;48.272;25.926;2023-08-07T01:39:00;4.53;;;4.13;;
26750;SDS011;14345;48.272;25.926;2023-08-07T01:41:28;4.30;;;3.90;;
26750;SDS011;14345;48.272;25.926;2023-08-07T01:43:54;4.43;;;4.03;;
26750;SDS011;14345;48.272;25.926;2023-08-07T01:46:20;4.18;;;3.88;;
26750;SDS011;14345;48.272;25.926;2023-08-07T01:48:46;4.72;;;4.32;;
26750;SDS011;14345;48.272;25.926;2023-08-07T01:51:12;4.82;;;4.28;;
26750;SDS011;14345;48.272;25.926;2023-08-07T01:53:38;4.82;;;4.43;;
26750;SDS011;14345;48.272;25.926;2023-08-07T01:56:04;4.25;;;3.95;;
26750;SDS011;14345;48.272;25.926;2023-08-07T01:58:30;9.18;;;7.32;;
26750;SDS011;14345;48.272;25.926;2023-08-07T02:00:56;5.80;;;5.20;;
26750;SDS011;14345;48.272;25.926;2023-08-07T02:03:22;4.35;;;3.95;;
26750;SDS011;14345;48.272;25.926;2023-08-07T02:05:48;4.28;;;3.97;;
26750;SDS011;14345;48.272;25.926;2023-08-07T02:08:14;5.00;;;4.07;;
26750;SDS011;14345;48.272;25.926;2023-08-07T02:10:40;4.20;;;3.80;;
26750;SDS011;14345;48.272;25.926;2023-08-07T02:13:06;4.50;;;4.05;;
26750;SDS011;14345;48.272;25.926;2023-08-07T02:15:32;4.28;;;3.60;;
26750;SDS011;14345;48.272;25.926;2023-08-07T02:17:58;3.85;;;3.45;;
26750;SDS011;14345;48.272;25.926;2023-08-07T02:20:24;3.88;;;3.50;;
26750;SDS011;14345;48.272;25.926;2023-08-07T02:22:50;3.85;;;3.47;;
26750;SDS011;14345;48.272;25.926;2023-08-07T02:25:16;5.72;;;4.40;;
26750;SDS011;14345;48.272;25.926;2023-08-07T02:27:42;5.00;;;4.22;;
26750;SDS011;14345;48.272;25.926;2023-08-07T02:30:08;4.57;;;4.18;;
26750;SDS011;14345;48.272;25.926;2023-08-07T02:32:35;4.35;;;3.60;;
26750;SDS011;14345;48.272;25.926;2023-08-07T02:35:01;4.30;;;3.90;;
26750;SDS011;14345;48.272;25.926;2023-08-07T02:37:27;4.20;;;3.85;;
26750;SDS011;14345;48.272;25.926;2023-08-07T02:39:52;4.35;;;3.90;;
26750;SDS011;14345;48.272;25.926;2023-08-07T02:42:19;5.50;;;4.50;;
26750;SDS011;14345;48.272;25.926;2023-08-07T02:44:45;5.22;;;4.70;;
26750;SDS011;14345;48.272;25.926;2023-08-07T02:47:11;5.22;;;4.30;;
26750;SDS011;14345;48.272;25.926;2023-08-07T02:49:37;5.15;;;4.22;;
26750;SDS011;14345;48.272;25.926;2023-08-07T02:52:03;5.68;;;4.65;;
26750;SDS011;14345;48.272;25.926;2023-08-07T02:54:29;5.40;;;4.20;;
26750;SDS011;14345;48.272;25.926;2023-08-07T02:56:56;4.63;;;4.10;;
26750;SDS011;14345;48.272;25.926;2023-08-07T02:59:22;4.95;;;4.55;;
26750;SDS011;14345;48.272;25.926;2023-08-07T03:01:48;6.22;;;5.63;;
26750;SDS011;14345;48.272;25.926;2023-08-07T03:04:13;5.68;;;4.72;;
26750;SDS011;14345;48.272;25.926;2023-08-07T03:06:39;5.72;;;4.22;;
26750;SDS011;14345;48.272;25.926;2023-08-07T03:09:05;5.30;;;4.53;;
26750;SDS011;14345;48.272;25.926;2023-08-07T03:11:31;4.53;;;3.80;;
26750;SDS011;14345;48.272;25.926;2023-08-07T03:13:57;5.05;;;3.58;;
26750;SDS011;14345;48.272;25.926;2023-08-07T03:16:23;9.18;;;4.30;;
26750;SDS011;14345;48.272;25.926;2023-08-07T03:18:49;8.82;;;4.32;;
26750;SDS011;14345;48.272;25.926;2023-08-07T03:21:16;7.13;;;4.07;;
26750;SDS011;14345;48.272;25.926;2023-08-07T03:23:42;13.70;;;5.60;;
26750;SDS011;14345;48.272;25.926;2023-08-07T03:26:09;8.23;;;4.85;;
26750;SDS011;14345;48.272;25.926;2023-08-07T03:28:35;9.18;;;4.38;;
26750;SDS011;14345;48.272;25.926;2023-08-07T03:31:02;7.63;;;4.60;;
26750;SDS011;14345;48.272;25.926;2023-08-07T03:33:28;8.38;;;4.13;;
26750;SDS011;14345;48.272;25.926;2023-08-07T03:35:54;6.88;;;3.05;;
26750;SDS011;14345;48.272;25.926;2023-08-07T03:38:20;12.40;;;3.78;;
26750;SDS011;14345;48.272;25.926;2023-08-07T03:40:46;13.15;;;3.38;;
26750;SDS011;14345;48.272;25.926;2023-08-07T03:43:12;6.68;;;2.50;;
26750;SDS011;14345;48.272;25.926;2023-08-07T03:45:39;8.60;;;2.97;;
26750;SDS011;14345;48.272;25.926;2023-08-07T03:48:05;6.38;;;2.90;;
26750;SDS011;14345;48.272;25.926;2023-08-07T03:50:31;9.40;;;2.95;;
26750;SDS011;14345;48.272;25.926;2023-08-07T03:53:00;7.78;;;3.08;;
26750;SDS011;14345;48.272;25.926;2023-08-07T03:55:26;13.82;;;3.42;;
26750;SDS011;14345;48.272;25.926;2023-08-07T03:57:52;10.30;;;3.22;;
26750;SDS011;14345;48.272;25.926;2023-08-07T04:00:18;5.47;;;2.47;;
26750;SDS011;14345;48.272;25.926;2023-08-07T04:02:45;10.65;;;3.45;;
26750;SDS011;14345;48.272;25.926;2023-08-07T04:05:11;5.93;;;2.30;;
26750;SDS011;14345;48.272;25.926;2023-08-07T04:07:37;6.40;;;2.10;;
26750;SDS011;14345;48.272;25.926;2023-08-07T04:10:03;5.40;;;2.00;;
26750;SDS011;14345;48.272;25.926;2023-08-07T04:12:29;9.90;;;2.55;;
26750;SDS011;14345;48.272;25.926;2023-08-07T04:14:56;6.82;;;2.13;;
26750;SDS011;14345;48.272;25.926;2023-08-07T04:17:22;11.70;;;2.78;;
26750;SDS011;14345;48.272;25.926;2023-08-07T04:19:48;6.60;;;2.03;;
26750;SDS011;14345;48.272;25.926;2023-08-07T04:22:14;6.13;;;2.25;;
26750;SDS011;14345;48.272;25.926;2023-08-07T04:24:40;6.18;;;2.08;;
26750;SDS011;14345;48.272;25.926;2023-08-07T04:27:06;5.70;;;2.33;;
26750;SDS011;14345;48.272;25.926;2023-08-07T04:29:33;4.47;;;1.65;;
26750;SDS011;14345;48.272;25.926;2023-08-07T04:32:00;5.10;;;1.80;;
26750;SDS011;14345;48.272;25.926;2023-08-07T04:34:26;2.60;;;1.42;;
26750;SDS011;14345;48.272;25.926;2023-08-07T04:36:52;4.65;;;1.85;;
26750;SDS011;14345;48.272;25.926;2023-08-07T04:39:20;2.22;;;1.45;;
26750;SDS011;14345;48.272;25.926;2023-08-07T04:41:46;4.40;;;1.52;;
26750;SDS011;14345;48.272;25.926;2023-08-07T04:44:14;4.72;;;1.50;;
26750;SDS011;14345;48.272;25.926;2023-08-07T04:46:40;3.78;;;1.40;;
26750;SDS011;14345;48.272;25.926;2023-08-07T04:49:06;3.03;;;1.17;;
26750;SDS011;14345;48.272;25.926;2023-08-07T04:51:32;3.00;;;1.17;;
26750;SDS011;14345;48.272;25.926;2023-08-07T04:53:58;3.33;;;1.50;;
26750;SDS011;14345;48.272;25.926;2023-08-07T04:56:24;4.18;;;1.42;;
26750;SDS011;14345;48.272;25.926;2023-08-07T04:58:50;6.32;;;1.90;;
26750;SDS011;14345;48.272;25.926;2023-08-07T05:01:16;5.45;;;1.88;;
26750;SDS011;14345;48.272;25.926;2023-08-07T05:03:43;5.03;;;1.70;;
26750;SDS011;14345;48.272;25.926;2023-08-07T05:06:09;3.30;;;1.55;;
26750;SDS011;14345;48.272;25.926;2023-08-07T05:08:35;5.78;;;1.50;;
26750;SDS011;14345;48.272;25.926;2023-08-07T05:11:01;3.25;;;1.00;;
26750;SDS011;14345;48.272;25.926;2023-08-07T05:13:27;5.85;;;1.35;;
26750;SDS011;14345;48.272;25.926;2023-08-07T05:15:53;4.07;;;1.15;;
26750;SDS011;14345;48.272;25.926;2023-08-07T05:18:19;1.92;;;1.20;;
26750;SDS011;14345;48.272;25.926;2023-08-07T05:20:45;1.77;;;1.02;;
26750;SDS011;14345;48.272;25.926;2023-08-07T05:23:11;1.10;;;1.00;;
26750;SDS011;14345;48.272;25.926;2023-08-07T05:25:37;5.32;;;1.23;;
26750;SDS011;14345;48.272;25.926;2023-08-07T05:28:03;2.05;;;1.15;;
26750;SDS011;14345;48.272;25.926;2023-08-07T05:30:30;2.50;;;1.10;;
26750;SDS011;14345;48.272;25.926;2023-08-07T05:32:56;2.85;;;1.02;;
26750;SDS011;14345;48.272;25.926;2023-08-07T05:35:22;2.92;;;1.00;;
26750;SDS011;14345;48.272;25.926;2023-08-07T05:37:48;5.57;;;1.10;;
26750;SDS011;14345;48.272;25.926;2023-08-07T05:40:14;0.90;;;0.80;;
26750;SDS011;14345;48.272;25.926;2023-08-07T05:42:40;1.48;;;0.95;;
26750;SDS011;14345;48.272;25.926;2023-08-07T05:45:07;3.90;;;1.38;;
26750;SDS011;14345;48.272;25.926;2023-08-07T05:47:33;1.35;;;0.95;;
26750;SDS011;14345;48.272;25.926;2023-08-07T05:49:59;2.90;;;1.10;;
26750;SDS011;14345;48.272;25.926;2023-08-07T05:52:25;3.10;;;1.00;;
26750;SDS011;14345;48.272;25.926;2023-08-07T05:54:52;1.45;;;1.00;;
26750;SDS011;14345;48.272;25.926;2023-08-07T05:57:18;5.13;;;1.50;;
26750;SDS011;14345;48.272;25.926;2023-08-07T05:59:44;1.17;;;0.85;;
26750;SDS011;14345;48.272;25.926;2023-08-07T06:02:10;1.27;;;0.85;;
26750;SDS011;14345;48.272;25.926;2023-08-07T06:04:36;1.05;;;0.90;;
26750;SDS011;14345;48.272;25.926;2023-08-07T06:07:03;2.17;;;1.15;;
26750;SDS011;14345;48.272;25.926;2023-08-07T06:09:29;2.40;;;0.77;;
26750;SDS011;14345;48.272;25.926;2023-08-07T06:11:55;1.88;;;0.82;;
26750;SDS011;14345;48.272;25.926;2023-08-07T06:14:21;2.33;;;1.05;;
26750;SDS011;14345;48.272;25.926;2023-08-07T06:16:50;1.60;;;1.00;;
26750;SDS011;14345;48.272;25.926;2023-08-07T06:19:16;1.55;;;0.90;;
26750;SDS011;14345;48.272;25.926;2023-08-07T06:21:42;1.38;;;0.90;;
26750;SDS011;14345;48.272;25.926;2023-08-07T06:24:08;3.47;;;0.80;;
26750;SDS011;14345;48.272;25.926;2023-08-07T06:26:34;2.88;;;0.80;;
26750;SDS011;14345;48.272;25.926;2023-08-07T06:29:00;2.47;;;0.90;;
26750;SDS011;14345;48.272;25.926;2023-08-07T06:31:26;0.82;;;0.70;;
26750;SDS011;14345;48.272;25.926;2023-08-07T06:33:52;2.55;;;0.85;;
26750;SDS011;14345;48.272;25.926;2023-08-07T06:36:18;1.40;;;0.70;;
26750;SDS011;14345;48.272;25.926;2023-08-07T06:38:44;2.25;;;0.80;;
26750;SDS011;14345;48.272;25.926;2023-08-07T06:41:10;2.17;;;0.90;;
26750;SDS011;14345;48.272;25.926;2023-08-07T06:43:36;2.20;;;0.85;;
26750;SDS011;14345;48.272;25.926;2023-08-07T06:46:02;0.73;;;0.70;;
26750;SDS011;14345;48.272;25.926;2023-08-07T06:48:28;2.17;;;0.90;;
26750;SDS011;14345;48.272;25.926;2023-08-07T06:50:54;0.77;;;0.65;;
26750;SDS011;14345;48.272;25.926;2023-08-07T06:53:20;0.60;;;0.60;;
26750;SDS011;14345;48.272;25.926;2023-08-07T06:55:46;1.50;;;0.73;;
26750;SDS011;14345;48.272;25.926;2023-08-07T06:58:12;3.03;;;1.15;;
26750;SDS011;14345;48.272;25.926;2023-08-07T07:00:38;1.42;;;0.60;;
26750;SDS011;14345;48.272;25.926;2023-08-07T07:03:04;1.27;;;0.70;;
26750;SDS011;14345;48.272;25.926;2023-08-07T07:05:32;0.52;;;0.52;;
26750;SDS011;14345;48.272;25.926;2023-08-07T07:07:58;0.63;;;0.60;;
26750;SDS011;14345;48.272;25.926;2023-08-07T07:10:24;0.50;;;0.50;;
26750;SDS011;14345;48.272;25.926;2023-08-07T07:12:50;1.52;;;1.00;;
26750;SDS011;14345;48.272;25.926;2023-08-07T07:15:17;3.25;;;1.00;;
26750;SDS011;14345;48.272;25.926;2023-08-07T07:17:43;0.65;;;0.65;;
26750;SDS011;14345;48.272;25.926;2023-08-07T07:20:09;1.40;;;0.70;;
26750;SDS011;14345;48.272;25.926;2023-08-07T07:22:36;3.72;;;1.00;;
26750;SDS011;14345;48.272;25.926;2023-08-07T07:25:02;2.92;;;0.60;;
26750;SDS011;14345;48.272;25.926;2023-08-07T07:27:28;1.02;;;0.70;;
26750;SDS011;14345;48.272;25.926;2023-08-07T07:29:54;4.55;;;0.85;;
26750;SDS011;14345;48.272;25.926;2023-08-07T07:32:20;1.88;;;0.80;;
26750;SDS011;14345;48.272;25.926;2023-08-07T07:34:46;2.05;;;0.80;;
26750;SDS011;14345;48.272;25.926;2023-08-07T07:37:12;0.95;;;0.80;;
26750;SDS011;14345;48.272;25.926;2023-08-07T07:39:39;1.10;;;0.70;;
26750;SDS011;14345;48.272;25.926;2023-08-07T07:42:07;3.38;;;0.88;;
26750;SDS011;14345;48.272;25.926;2023-08-07T07:44:33;1.30;;;0.80;;
26750;SDS011;14345;48.272;25.926;2023-08-07T07:47:01;0.80;;;0.50;;
26750;SDS011;14345;48.272;25.926;2023-08-07T07:49:27;2.25;;;1.00;;
26750;SDS011;14345;48.272;25.926;2023-08-07T07:51:53;1.63;;;0.80;;
26750;SDS011;14345;48.272;25.926;2023-08-07T07:54:19;1.73;;;1.08;;
26750;SDS011;14345;48.272;25.926;2023-08-07T07:56:45;1.67;;;0.77;;
26750;SDS011;14345;48.272;25.926;2023-08-07T07:59:11;2.38;;;1.10;;
26750;SDS011;14345;48.272;25.926;2023-08-07T08:01:38;1.77;;;0.90;;
26750;SDS011;14345;48.272;25.926;2023-08-07T08:04:04;0.85;;;0.68;;
26750;SDS011;14345;48.272;25.926;2023-08-07T08:06:31;0.98;;;0.88;;
26750;SDS011;14345;48.272;25.926;2023-08-07T08:08:57;0.75;;;0.70;;
26750;SDS011;14345;48.272;25.926;2023-08-07T08:11:24;1.25;;;0.82;;
26750;SDS011;14345;48.272;25.926;2023-08-07T08:13:50;1.85;;;0.82;;
26750;SDS011;14345;48.272;25.926;2023-08-07T08:16:16;0.98;;;0.60;;
26750;SDS011;14345;48.272;25.926;2023-08-07T08:18:42;0.80;;;0.80;;
26750;SDS011;14345;48.272;25.926;2023-08-07T08:21:08;1.17;;;0.70;;
26750;SDS011;14345;48.272;25.926;2023-08-07T08:23:34;0.80;;;0.80;;
26750;SDS011;14345;48.272;25.926;2023-08-07T08:26:00;0.65;;;0.65;;
26750;SDS011;14345;48.272;25.926;2023-08-07T08:28:26;0.85;;;0.80;;
26750;SDS011;14345;48.272;25.926;2023-08-07T08:30:52;0.70;;;0.52;;
26750;SDS011;14345;48.272;25.926;2023-08-07T08:33:18;1.35;;;0.70;;
26750;SDS011;14345;48.272;25.926;2023-08-07T08:35:44;1.23;;;0.82;;
26750;SDS011;14345;48.272;25.926;2023-08-07T08:38:10;0.77;;;0.50;;
26750;SDS011;14345;48.272;25.926;2023-08-07T08:40:37;0.85;;;0.50;;
26750;SDS011;14345;48.272;25.926;2023-08-07T08:43:04;3.95;;;0.65;;
26750;SDS011;14345;48.272;25.926;2023-08-07T08:45:30;0.82;;;0.70;;
26750;SDS011;14345;48.272;25.926;2023-08-07T08:48:03;1.98;;;0.80;;
26750;SDS011;14345;48.272;25.926;2023-08-07T08:50:30;0.70;;;0.70;;
26750;SDS011;14345;48.272;25.926;2023-08-07T08:52:57;3.20;;;0.70;;
26750;SDS011;14345;48.272;25.926;2023-08-07T08:55:24;1.42;;;0.80;;
26750;SDS011;14345;48.272;25.926;2023-08-07T08:57:51;3.10;;;0.90;;
26750;SDS011;14345;48.272;25.926;2023-08-07T09:00:18;1.23;;;0.80;;
26750;SDS011;14345;48.272;25.926;2023-08-07T09:02:50;1.23;;;0.85;;
26750;SDS011;14345;48.272;25.926;2023-08-07T09:05:17;0.70;;;0.70;;
26750;SDS011;14345;48.272;25.926;2023-08-07T09:07:45;1.55;;;0.98;;
26750;SDS011;14345;48.272;25.926;2023-08-07T09:10:12;2.13;;;0.70;;
26750;SDS011;14345;48.272;25.926;2023-08-07T09:12:40;0.85;;;0.60;;
26750;SDS011;14345;48.272;25.926;2023-08-07T09:15:06;1.17;;;0.70;;
26750;SDS011;14345;48.272;25.926;2023-08-07T09:17:34;0.95;;;0.60;;
26750;SDS011;14345;48.272;25.926;2023-08-07T09:20:01;2.80;;;0.60;;
26750;SDS011;14345;48.272;25.926;2023-08-07T09:22:29;2.80;;;0.60;;
26750;SDS011;14345;48.272;25.926;2023-08-07T09:24:55;1.65;;;0.65;;
26750;SDS011;14345;48.272;25.926;2023-08-07T09:27:24;0.50;;;0.45;;
26750;SDS011;14345;48.272;25.926;2023-08-07T09:29:51;1.23;;;0.70;;
26750;SDS011;14345;48.272;25.926;2023-08-07T09:32:20;2.15;;;0.88;;
26750;SDS011;14345;48.272;25.926;2023-08-07T09:34:48;2.67;;;0.68;;
26750;SDS011;14345;48.272;25.926;2023-08-07T09:37:14;2.10;;;0.50;;
26750;SDS011;14345;48.272;25.926;2023-08-07T09:39:40;0.57;;;0.40;;
26750;SDS011;14345;48.272;25.926;2023-08-07T09:42:16;0.77;;;0.45;;
26750;SDS011;14345;48.272;25.926;2023-08-07T09:44:42;0.82;;;0.57;;
26750;SDS011;14345;48.272;25.926;2023-08-07T09:47:13;1.10;;;0.70;;
26750;SDS011;14345;48.272;25.926;2023-08-07T09:49:40;0.55;;;0.50;;
26750;SDS011;14345;48.272;25.926;2023-08-07T09:52:06;2.08;;;0.50;;
26750;SDS011;14345;48.272;25.926;2023-08-07T09:54:33;1.52;;;0.70;;
26750;SDS011;14345;48.272;25.926;2023-08-07T09:57:00;1.17;;;0.70;;
26750;SDS011;14345;48.272;25.926;2023-08-07T09:59:27;0.75;;;0.70;;
26750;SDS011;14345;48.272;25.926;2023-08-07T10:01:53;2.05;;;0.70;;
26750;SDS011;14345;48.272;25.926;2023-08-07T10:04:23;1.25;;;0.60;;
26750;SDS011;14345;48.272;25.926;2023-08-07T10:06:49;3.42;;;0.80;;
26750;SDS011;14345;48.272;25.926;2023-08-07T10:09:16;1.60;;;0.52;;
26750;SDS011;14345;48.272;25.926;2023-08-07T10:11:42;0.40;;;0.40;;
26750;SDS011;14345;48.272;25.926;2023-08-07T10:14:08;0.52;;;0.52;;
26750;SDS011;14345;48.272;25.926;2023-08-07T10:16:35;0.52;;;0.52;;
26750;SDS011;14345;48.272;25.926;2023-08-07T10:19:05;1.10;;;0.70;;
26750;SDS011;14345;48.272;25.926;2023-08-07T10:21:32;1.10;;;0.55;;
26750;SDS011;14345;48.272;25.926;2023-08-07T10:23:59;1.73;;;0.70;;
26750;SDS011;14345;48.272;25.926;2023-08-07T10:26:27;1.05;;;0.60;;
26750;SDS011;14345;48.272;25.926;2023-08-07T10:28:53;1.55;;;0.50;;
26750;SDS011;14345;48.272;25.926;2023-08-07T10:31:20;0.45;;;0.40;;
26750;SDS011;14345;48.272;25.926;2023-08-07T10:33:47;0.95;;;0.50;;
26750;SDS011;14345;48.272;25.926;2023-08-07T10:36:15;5.40;;;0.82;;
26750;SDS011;14345;48.272;25.926;2023-08-07T10:38:42;2.35;;;0.60;;
26750;SDS011;14345;48.272;25.926;2023-08-07T10:41:08;0.40;;;0.40;;
26750;SDS011;14345;48.272;25.926;2023-08-07T10:43:38;0.55;;;0.50;;
26750;SDS011;14345;48.272;25.926;2023-08-07T10:46:19;2.15;;;0.60;;
26750;SDS011;14345;48.272;25.926;2023-08-07T10:48:53;0.50;;;0.40;;
26750;SDS011;14345;48.272;25.926;2023-08-07T10:51:21;2.22;;;0.32;;
26750;SDS011;14345;48.272;25.926;2023-08-07T10:53:55;2.47;;;0.30;;
26750;SDS011;14345;48.272;25.926;2023-08-07T10:56:34;3.30;;;0.47;;
26750;SDS011;14345;48.272;25.926;2023-08-07T10:59:09;0.30;;;0.30;;
26750;SDS011;14345;48.272;25.926;2023-08-07T11:04:08;0.30;;;0.20;;
26750;SDS011;14345;48.272;25.926;2023-08-07T11:06:35;0.70;;;0.40;;
26750;SDS011;14345;48.272;25.926;2023-08-07T11:09:02;0.38;;;0.38;;
26750;SDS011;14345;48.272;25.926;2023-08-07T11:11:29;0.45;;;0.30;;
26750;SDS011;14345;48.272;25.926;2023-08-07T11:13:55;0.68;;;0.50;;
26750;SDS011;14345;48.272;25.926;2023-08-07T11:16:21;1.08;;;0.50;;
26750;SDS011;14345;48.272;25.926;2023-08-07T11:18:48;0.47;;;0.45;;
26750;SDS011;14345;48.272;25.926;2023-08-07T11:21:14;0.65;;;0.52;;
26750;SDS011;14345;48.272;25.926;2023-08-07T11:23:40;1.75;;;0.80;;
26750;SDS011;14345;48.272;25.926;2023-08-07T11:26:09;0.63;;;0.57;;
26750;SDS011;14345;48.272;25.926;2023-08-07T11:28:35;2.00;;;0.80;;
26750;SDS011;14345;48.272;25.926;2023-08-07T11:31:01;2.40;;;0.70;;
26750;SDS011;14345;48.272;25.926;2023-08-07T11:33:27;1.25;;;0.63;;
26750;SDS011;14345;48.272;25.926;2023-08-07T11:35:54;1.40;;;0.80;;
26750;SDS011;14345;48.272;25.926;2023-08-07T11:38:33;0.50;;;0.50;;
26750;SDS011;14345;48.272;25.926;2023-08-07T11:41:03;0.50;;;0.50;;
26750;SDS011;14345;48.272;25.926;2023-08-07T11:43:30;0.55;;;0.43;;
26750;SDS011;14345;48.272;25.926;2023-08-07T11:45:57;0.50;;;0.40;;
26750;SDS011;14345;48.272;25.926;2023-08-07T11:48:24;0.40;;;0.40;;
26750;SDS011;14345;48.272;25.926;2023-08-07T11:50:51;0.70;;;0.40;;
26750;SDS011;14345;48.272;25.926;2023-08-07T11:53:17;0.50;;;0.30;;
26750;SDS011;14345;48.272;25.926;2023-08-07T11:55:54;2.85;;;0.40;;
26750;SDS011;14345;48.272;25.926;2023-08-07T11:58:21;0.85;;;0.40;;
26750;SDS011;14345;48.272;25.926;2023-08-07T12:00:47;0.55;;;0.30;;
26750;SDS011;14345;48.272;25.926;2023-08-07T12:03:23;0.60;;;0.50;;
26750;SDS011;14345;48.272;25.926;2023-08-07T12:05:50;2.65;;;0.60;;
26750;SDS011;14345;48.272;25.926;2023-08-07T12:08:16;0.75;;;0.30;;
26750;SDS011;14345;48.272;25.926;2023-08-07T12:10:42;0.70;;;0.30;;
26750;SDS011;14345;48.272;25.926;2023-08-07T12:13:09;0.88;;;0.40;;
26750;SDS011;14345;48.272;25.926;2023-08-07T12:15:37;0.57;;;0.40;;
26750;SDS011;14345;48.272;25.926;2023-08-07T12:18:03;1.38;;;0.65;;
26750;SDS011;14345;48.272;25.926;2023-08-07T12:20:29;0.35;;;0.30;;
26750;SDS011;14345;48.272;25.926;2023-08-07T12:22:55;1.65;;;0.63;;
26750;SDS011;14345;48.272;25.926;2023-08-07T12:25:21;2.40;;;0.30;;
26750;SDS011;14345;48.272;25.926;2023-08-07T12:27:47;0.85;;;0.28;;
26750;SDS011;14345;48.272;25.926;2023-08-07T12:30:14;0.47;;;0.20;;
26750;SDS011;14345;48.272;25.926;2023-08-07T12:32:40;0.93;;;0.38;;
26750;SDS011;14345;48.272;25.926;2023-08-07T12:35:06;0.57;;;0.40;;
26750;SDS011;14345;48.272;25.926;2023-08-07T12:37:36;1.67;;;0.20;;
26750;SDS011;14345;48.272;25.926;2023-08-07T12:40:02;1.02;;;0.40;;
26750;SDS011;14345;48.272;25.926;2023-08-07T12:42:30;0.40;;;0.40;;
26750;SDS011;14345;48.272;25.926;2023-08-07T12:44:56;1.15;;;0.32;;
26750;SDS011;14345;48.272;25.926;2023-08-07T12:47:23;0.57;;;0.30;;
26750;SDS011;14345;48.272;25.926;2023-08-07T12:49:49;0.40;;;0.40;;
26750;SDS011;14345;48.272;25.926;2023-08-07T12:52:15;1.95;;;0.20;;
26750;SDS011;14345;48.272;25.926;2023-08-07T12:54:41;0.90;;;0.40;;
26750;SDS011;14345;48.272;25.926;2023-08-07T12:57:07;0.43;;;0.40;;
26750;SDS011;14345;48.272;25.926;2023-08-07T12:59:33;0.95;;;0.40;;
26750;SDS011;14345;48.272;25.926;2023-08-07T13:01:59;1.40;;;0.40;;
26750;SDS011;14345;48.272;25.926;2023-08-07T13:04:25;1.00;;;0.73;;
26750;SDS011;14345;48.272;25.926;2023-08-07T13:06:51;1.10;;;1.02;;
26750;SDS011;14345;48.272;25.926;2023-08-07T13:09:17;1.23;;;1.13;;
26750;SDS011;14345;48.272;25.926;2023-08-07T13:11:43;2.53;;;0.80;;
26750;SDS011;14345;48.272;25.926;2023-08-07T13:14:09;0.40;;;0.40;;
26750;SDS011;14345;48.272;25.926;2023-08-07T13:16:35;0.52;;;0.52;;
26750;SDS011;14345;48.272;25.926;2023-08-07T13:19:01;2.35;;;0.40;;
26750;SDS011;14345;48.272;25.926;2023-08-07T13:21:27;0.32;;;0.30;;
26750;SDS011;14345;48.272;25.926;2023-08-07T13:23:53;0.30;;;0.30;;
26750;SDS011;14345;48.272;25.926;2023-08-07T13:26:20;0.40;;;0.20;;
26750;SDS011;14345;48.272;25.926;2023-08-07T13:28:46;0.65;;;0.38;;
26750;SDS011;14345;48.272;25.926;2023-08-07T13:31:12;1.02;;;0.20;;
26750;SDS011;14345;48.272;25.926;2023-08-07T13:33:38;0.30;;;0.30;;
26750;SDS011;14345;48.272;25.926;2023-08-07T13:36:04;0.30;;;0.30;;
26750;SDS011;14345;48.272;25.926;2023-08-07T13:38:30;0.30;;;0.30;;
26750;SDS011;14345;48.272;25.926;2023-08-07T13:40:56;0.52;;;0.30;;
26750;SDS011;14345;48.272;25.926;2023-08-07T13:43:22;0.40;;;0.30;;
26750;SDS011;14345;48.272;25.926;2023-08-07T13:45:48;0.40;;;0.20;;
26750;SDS011;14345;48.272;25.926;2023-08-07T13:48:16;0.17;;;0.10;;
26750;SDS011;14345;48.272;25.926;2023-08-07T13:50:42;0.20;;;0.20;;
26750;SDS011;14345;48.272;25.926;2023-08-07T13:53:08;0.25;;;0.20;;
26750;SDS011;14345;48.272;25.926;2023-08-07T13:55:34;0.20;;;0.20;;
26750;SDS011;14345;48.272;25.926;2023-08-07T13:58:00;0.95;;;0.50;;
26750;SDS011;14345;48.272;25.926;2023-08-07T14:00:26;0.75;;;0.50;;
26750;SDS011;14345;48.272;25.926;2023-08-07T14:02:53;0.57;;;0.30;;
26750;SDS011;14345;48.272;25.926;2023-08-07T14:05:19;0.50;;;0.50;;
26750;SDS011;14345;48.272;25.926;2023-08-07T14:07:45;1.42;;;0.40;;
26750;SDS011;14345;48.272;25.926;2023-08-07T14:10:11;3.45;;;0.73;;
26750;SDS011;14345;48.272;25.926;2023-08-07T14:12:37;3.13;;;0.63;;
26750;SDS011;14345;48.272;25.926;2023-08-07T14:15:03;0.80;;;0.30;;
26750;SDS011;14345;48.272;25.926;2023-08-07T14:17:29;0.32;;;0.30;;
26750;SDS011;14345;48.272;25.926;2023-08-07T14:19:55;1.65;;;0.40;;
26750;SDS011;14345;48.272;25.926;2023-08-07T14:22:21;1.33;;;0.52;;
26750;SDS011;14345;48.272;25.926;2023-08-07T14:24:47;1.77;;;0.75;;
26750;SDS011;14345;48.272;25.926;2023-08-07T14:27:13;1.65;;;0.40;;
26750;SDS011;14345;48.272;25.926;2023-08-07T14:29:40;0.85;;;0.30;;
26750;SDS011;14345;48.272;25.926;2023-08-07T14:32:06;1.13;;;0.20;;
26750;SDS011;14345;48.272;25.926;2023-08-07T14:34:32;0.20;;;0.20;;
26750;SDS011;14345;48.272;25.926;2023-08-07T14:36:58;0.30;;;0.15;;
26750;SDS011;14345;48.272;25.926;2023-08-07T14:39:24;0.20;;;0.20;;